Time;durP1;ratioP1;P1;durP2;ratioP2;P2;SDS_P1;SDS_P2;PMS_P1;PMS_P2;Temp;Humidity;BMP_temperature;BMP_pressure;BME280_temperature;BME280_humidity;BME280_pressure;Samples;Min_cycle;Max_cycle;Signal;HPM_P1;HPM_P2
2022/03/21 00:00:48;;;;;;;12.57;9.75;;;7.20;93.90;;;;;;4991209;28;20096;-59
2022/03/21 00:03:19;;;;;;;13.70;9.40;;;7.20;93.90;;;;;;5003188;28;20400;-59
2022/03/21 00:05:50;;;;;;;13.13;9.90;;;7.20;93.90;;;;;;4997713;28;20068;-60
2022/03/21 00:08:22;;;;;;;13.15;9.32;;;7.20;93.90;;;;;;4991703;28;20034;-59
2022/03/21 00:10:52;;;;;;;15.23;10.20;;;7.10;93.90;;;;;;5014598;28;20499;-61
2022/03/21 00:13:20;;;;;;;16.73;10.45;;;7.10;93.90;;;;;;5023427;28;20104;-58
2022/03/21 00:15:49;;;;;;;13.60;9.50;;;7.10;94.00;;;;;;5013661;28;20037;-58
2022/03/21 00:18:17;;;;;;;15.95;10.43;;;7.10;93.90;;;;;;5012325;28;20038;-59
2022/03/21 00:20:48;;;;;;;16.98;10.27;;;7.10;93.90;;;;;;5012217;28;20381;-58
2022/03/21 00:23:17;;;;;;;17.85;9.65;;;7.10;94.00;;;;;;5011207;28;20029;-58
2022/03/21 00:25:45;;;;;;;13.32;10.05;;;7.10;94.00;;;;;;5017636;28;20068;-59
2022/03/21 00:28:13;;;;;;;19.35;10.82;;;7.00;93.90;;;;;;5005778;28;20034;-59
2022/03/21 00:30:42;;;;;;;17.33;10.23;;;7.00;93.90;;;;;;5013222;28;20501;-60
2022/03/21 00:33:11;;;;;;;16.60;11.10;;;7.00;93.90;;;;;;5009253;28;20037;-58
2022/03/21 00:35:42;;;;;;;15.65;10.57;;;7.00;94.00;;;;;;5024613;28;20037;-59
2022/03/21 00:38:14;;;;;;;13.77;10.02;;;7.00;94.00;;;;;;5011158;28;20065;-58
2022/03/21 00:40:45;;;;;;;16.35;10.52;;;7.00;94.00;;;;;;5026197;28;20050;-61
2022/03/21 00:43:22;;;;;;;15.98;9.95;;;7.00;94.00;;;;;;5034102;28;20148;-58
2022/03/21 00:45:54;;;;;;;17.27;11.43;;;7.00;94.00;;;;;;5035804;28;20137;-58
2022/03/21 00:48:26;;;;;;;13.50;9.70;;;7.00;94.20;;;;;;5033947;28;20446;-57
2022/03/21 00:50:56;;;;;;;14.43;10.32;;;7.00;94.00;;;;;;5017357;28;20045;-58
2022/03/21 00:53:24;;;;;;;13.68;9.65;;;7.00;94.00;;;;;;5033944;28;20045;-59
2022/03/21 00:55:52;;;;;;;15.52;10.40;;;7.00;94.00;;;;;;5034044;28;20060;-58
2022/03/21 00:58:20;;;;;;;18.60;11.13;;;7.00;94.00;;;;;;5001446;28;20053;-58
2022/03/21 01:00:49;;;;;;;19.98;12.10;;;6.90;94.00;;;;;;5001216;28;20053;-57
2022/03/21 01:03:16;;;;;;;20.05;12.32;;;7.00;94.10;;;;;;5033676;28;20049;-57
2022/03/21 01:05:44;;;;;;;17.25;11.30;;;6.90;94.20;;;;;;5033717;28;20124;-57
2022/03/21 01:08:11;;;;;;;15.80;11.07;;;6.90;94.30;;;;;;5035019;28;20129;-57
2022/03/21 01:10:39;;;;;;;19.05;11.85;;;6.90;94.10;;;;;;5033595;28;20526;-59
2022/03/21 01:13:07;;;;;;;15.75;10.27;;;6.90;94.20;;;;;;5033527;28;20041;-58
2022/03/21 01:15:34;;;;;;;15.32;11.07;;;6.90;94.10;;;;;;5034709;28;20479;-57
2022/03/21 01:18:02;;;;;;;15.10;12.00;;;7.00;94.30;;;;;;5033387;28;20494;-57
2022/03/21 01:20:29;;;;;;;19.17;11.73;;;7.00;94.10;;;;;;5052069;28;20140;-58
2022/03/21 01:22:57;;;;;;;17.05;11.45;;;7.00;94.20;;;;;;5054657;28;20076;-57
2022/03/21 01:25:25;;;;;;;17.52;10.48;;;7.00;94.10;;;;;;5004329;28;20063;-59
2022/03/21 01:27:52;;;;;;;13.50;10.13;;;7.00;94.20;;;;;;5037306;28;20069;-58
2022/03/21 01:30:21;;;;;;;20.88;11.57;;;7.00;94.20;;;;;;5036871;28;20495;-58
2022/03/21 01:32:48;;;;;;;15.70;11.20;;;7.00;94.20;;;;;;5036300;28;20402;-57
2022/03/21 01:35:17;;;;;;;19.50;12.32;;;6.90;94.30;;;;;;5036864;28;20053;-58
2022/03/21 01:37:46;;;;;;;16.75;12.48;;;6.90;94.30;;;;;;5019979;28;20056;-58
2022/03/21 01:40:16;;;;;;;17.90;11.88;;;6.90;94.30;;;;;;5004056;28;20495;-56
2022/03/21 01:42:47;;;;;;;18.55;11.68;;;6.80;94.30;;;;;;5036461;28;20131;-58
2022/03/21 01:45:17;;;;;;;17.85;11.75;;;6.80;94.50;;;;;;5036515;28;20111;-58
2022/03/21 01:47:46;;;;;;;16.38;11.82;;;6.70;94.40;;;;;;5036389;28;20490;-58
2022/03/21 01:50:15;;;;;;;14.80;9.38;;;6.60;94.40;;;;;;5036273;28;20048;-57
2022/03/21 01:52:43;;;;;;;16.77;11.38;;;6.50;94.40;;;;;;5036715;28;20136;-57
2022/03/21 01:58:02;;;;;;;13.27;8.00;;;6.10;94.50;;;;;;5019443;28;20098;-59
2022/03/21 02:00:29;;;;;;;13.63;8.05;;;6.00;93.40;;;;;;5054055;28;20158;-59
2022/03/21 02:02:57;;;;;;;8.15;6.55;;;6.10;93.00;;;;;;5036225;28;20099;-58
2022/03/21 02:05:25;;;;;;;10.77;7.38;;;6.10;92.80;;;;;;5019734;28;20395;-58
2022/03/21 02:07:53;;;;;;;12.55;7.38;;;6.20;92.80;;;;;;5053673;28;20045;-58
2022/03/21 02:10:21;;;;;;;10.93;6.68;;;6.30;92.50;;;;;;5019826;28;20045;-59
2022/03/21 02:12:49;;;;;;;11.93;7.05;;;6.40;92.30;;;;;;5035939;28;20557;-58
2022/03/21 02:15:17;;;;;;;10.07;6.85;;;6.50;92.30;;;;;;5019666;28;20052;-57
2022/03/21 02:17:46;;;;;;;10.90;7.13;;;6.50;92.10;;;;;;5036065;28;20487;-58
2022/03/21 02:20:18;;;;;;;10.18;6.72;;;6.50;92.00;;;;;;5032224;28;20456;-58
2022/03/21 02:22:51;;;;;;;10.50;6.78;;;6.60;92.00;;;;;;5016216;28;20130;-58
2022/03/21 02:25:34;;;;;;;8.75;7.53;;;6.60;91.90;;;;;;5033603;28;20048;-57
2022/03/21 02:28:18;;;;;;;9.15;6.20;;;6.50;91.90;;;;;;5032676;28;20469;-58
2022/03/21 02:30:47;;;;;;;16.95;10.13;;;6.50;91.90;;;;;;5032373;28;20124;-58
2022/03/21 02:33:18;;;;;;;13.20;8.75;;;6.50;92.00;;;;;;5033631;28;20061;-57
2022/03/21 02:35:48;;;;;;;11.85;7.68;;;6.50;91.90;;;;;;4999570;28;20045;-56
2022/03/21 02:38:17;;;;;;;16.95;8.38;;;6.60;91.80;;;;;;5033415;28;20136;-58
2022/03/21 02:40:45;;;;;;;9.38;6.28;;;6.60;91.80;;;;;;4999731;28;20140;-58
2022/03/21 02:43:13;;;;;;;9.55;6.38;;;6.60;91.80;;;;;;5000603;28;20053;-57
2022/03/21 02:45:41;;;;;;;7.57;5.35;;;6.60;91.80;;;;;;5036307;28;20091;-58
2022/03/21 02:48:11;;;;;;;10.27;6.68;;;6.70;91.60;;;;;;5036299;28;20076;-59
2022/03/21 02:50:43;;;;;;;8.13;5.63;;;6.70;91.40;;;;;;5020153;28;20046;-58
2022/03/21 02:53:12;;;;;;;9.02;5.60;;;6.70;91.20;;;;;;5037728;28;20383;-56
2022/03/21 02:55:41;;;;;;;8.20;5.72;;;6.70;91.10;;;;;;5037431;28;20446;-58
2022/03/21 02:58:09;;;;;;;11.07;6.00;;;6.70;91.00;;;;;;5018791;28;20103;-60
2022/03/21 03:00:37;;;;;;;9.50;5.32;;;6.70;90.90;;;;;;4996019;28;20046;-58
2022/03/21 03:03:05;;;;;;;7.90;5.28;;;6.80;90.70;;;;;;4996462;28;20842;-58
2022/03/21 03:05:32;;;;;;;8.07;5.78;;;6.80;90.70;;;;;;4997864;28;20069;-58
2022/03/21 03:08:02;;;;;;;8.52;5.68;;;6.90;90.60;;;;;;5012633;28;20038;-57
2022/03/21 03:10:33;;;;;;;8.95;5.80;;;6.90;90.50;;;;;;4996378;28;20038;-58
2022/03/21 03:13:00;;;;;;;7.75;5.70;;;6.90;90.60;;;;;;4996403;28;20053;-58
2022/03/21 03:15:28;;;;;;;10.18;5.90;;;6.80;90.60;;;;;;4997500;28;20092;-56
2022/03/21 03:17:56;;;;;;;8.82;5.78;;;6.80;90.70;;;;;;4997406;28;20444;-58
2022/03/21 03:20:24;;;;;;;11.80;6.90;;;6.80;90.70;;;;;;4979983;28;20447;-58
2022/03/21 03:22:53;;;;;;;11.50;5.65;;;6.90;90.70;;;;;;5012676;28;20049;-58
2022/03/21 03:25:23;;;;;;;10.00;5.97;;;6.90;90.70;;;;;;5012062;28;20054;-59
2022/03/21 03:27:51;;;;;;;9.43;5.50;;;6.90;90.60;;;;;;5012572;28;20050;-58
2022/03/21 03:30:19;;;;;;;6.60;5.03;;;6.90;90.60;;;;;;5012431;28;20519;-58
2022/03/21 03:32:47;;;;;;;10.00;5.43;;;6.90;90.60;;;;;;4996181;28;20046;-59
2022/03/21 03:35:15;;;;;;;7.65;5.97;;;7.00;90.70;;;;;;5012340;28;20054;-58
2022/03/21 03:37:42;;;;;;;8.05;5.10;;;7.00;90.50;;;;;;4997133;28;20038;-59
2022/03/21 03:40:10;;;;;;;9.55;5.95;;;7.00;90.50;;;;;;4997196;28;20035;-58
2022/03/21 03:42:38;;;;;;;9.85;5.38;;;7.00;90.40;;;;;;5012167;28;20113;-60
2022/03/21 03:45:06;;;;;;;6.78;4.85;;;7.00;90.30;;;;;;4997023;28;20507;-58
2022/03/21 03:47:34;;;;;;;8.65;5.68;;;7.00;90.20;;;;;;5012171;28;20053;-58
2022/03/21 03:50:02;;;;;;;8.75;5.38;;;7.00;90.30;;;;;;4996902;28;20046;-58
2022/03/21 03:52:30;;;;;;;7.70;5.97;;;7.00;90.50;;;;;;4995587;28;20050;-58
2022/03/21 03:54:57;;;;;;;7.97;5.93;;;7.00;90.80;;;;;;4963524;28;20392;-58
2022/03/21 03:57:25;;;;;;;10.23;7.03;;;7.00;91.40;;;;;;4996641;28;20050;-58
2022/03/21 03:59:54;;;;;;;11.38;6.80;;;7.00;91.70;;;;;;5011815;28;20046;-58
2022/03/21 04:02:21;;;;;;;13.27;7.45;;;7.00;91.50;;;;;;4995649;28;20428;-59
2022/03/21 04:04:49;;;;;;;10.70;7.60;;;7.00;91.70;;;;;;4979802;28;20448;-58
2022/03/21 04:07:19;;;;;;;12.52;7.53;;;7.00;91.70;;;;;;5011562;28;20042;-57
2022/03/21 04:09:46;;;;;;;12.80;8.18;;;6.90;91.70;;;;;;4996582;28;20158;-58
2022/03/21 04:12:14;;;;;;;13.68;9.02;;;6.80;91.90;;;;;;4996362;28;20043;-57
2022/03/21 04:14:43;;;;;;;14.13;9.23;;;6.70;92.20;;;;;;4996663;28;20137;-58
2022/03/21 04:17:11;;;;;;;13.00;8.23;;;6.70;92.30;;;;;;4995091;28;20113;-58
2022/03/21 04:19:38;;;;;;;15.07;9.23;;;6.70;92.30;;;;;;4978890;28;20057;-58
2022/03/21 04:22:06;;;;;;;14.82;9.77;;;6.60;92.40;;;;;;4996460;28;20480;-58
2022/03/21 04:24:34;;;;;;;15.05;9.80;;;6.60;92.60;;;;;;5011508;28;20046;-58
2022/03/21 04:27:04;;;;;;;17.50;9.70;;;6.60;92.60;;;;;;4996361;28;20528;-58
2022/03/21 04:29:31;;;;;;;17.08;10.18;;;6.60;92.50;;;;;;4995408;28;20420;-58
2022/03/21 04:31:59;;;;;;;13.85;9.52;;;6.60;92.40;;;;;;4994957;28;20050;-58
2022/03/21 04:34:27;;;;;;;11.15;8.15;;;6.70;92.50;;;;;;4996205;28;20046;-56
2022/03/21 04:36:55;;;;;;;13.25;8.70;;;6.70;92.40;;;;;;4994948;28;20448;-56
2022/03/21 04:39:22;;;;;;;12.45;10.20;;;6.70;92.30;;;;;;4994688;28;20046;-59
2022/03/21 04:41:50;;;;;;;15.55;9.98;;;6.70;92.30;;;;;;4995001;28;20473;-57
2022/03/21 04:44:19;;;;;;;18.42;11.65;;;6.70;92.20;;;;;;5011207;28;20054;-58
2022/03/21 04:46:47;;;;;;;24.10;14.80;;;6.70;92.20;;;;;;5010826;28;20100;-57
2022/03/21 04:49:15;;;;;;;20.60;13.15;;;6.70;92.10;;;;;;4995853;28;20042;-58
2022/03/21 04:51:42;;;;;;;19.77;12.23;;;6.70;92.20;;;;;;5010840;28;20125;-58
2022/03/21 04:54:10;;;;;;;21.48;12.48;;;6.70;92.30;;;;;;4994656;28;20124;-58
2022/03/21 04:56:37;;;;;;;14.70;11.00;;;6.70;92.20;;;;;;4995831;28;20046;-58
2022/03/21 04:59:07;;;;;;;15.38;9.60;;;6.70;92.00;;;;;;4994581;28;20045;-58
2022/03/21 05:01:36;;;;;;;12.05;8.95;;;6.80;92.10;;;;;;4995855;28;20081;-59
2022/03/21 05:04:03;;;;;;;12.73;9.07;;;6.80;92.00;;;;;;4995469;28;20084;-58
2022/03/21 05:06:31;;;;;;;12.55;9.13;;;6.90;91.90;;;;;;4993737;28;20497;-57
2022/03/21 05:09:03;;;;;;;14.02;9.23;;;7.00;91.90;;;;;;4995460;28;20396;-58
2022/03/21 05:11:30;;;;;;;13.77;8.52;;;7.10;91.80;;;;;;5010839;28;20089;-58
2022/03/21 05:13:58;;;;;;;13.18;8.77;;;7.20;91.60;;;;;;4994714;28;20053;-58
2022/03/21 05:16:25;;;;;;;13.77;9.63;;;7.40;91.50;;;;;;4977930;28;20050;-58
2022/03/21 05:18:53;;;;;;;13.43;9.40;;;7.50;91.30;;;;;;4996199;28;20057;-56
2022/03/21 05:21:21;;;;;;;19.60;10.07;;;7.60;91.30;;;;;;4981307;28;20116;-58
2022/03/21 05:32:06;;;;;;;13.98;9.55;;;8.20;90.90;;;;;;5013718;28;20137;-59
2022/03/21 05:37:19;;;;;;;12.75;9.38;;;8.50;90.90;;;;;;5014532;28;20046;-59
2022/03/21 05:42:32;;;;;;;11.10;7.03;;;8.80;90.70;;;;;;5014701;28;20068;-59
2022/03/21 05:45:00;;;;;;;11.50;7.43;;;9.00;90.40;;;;;;5013331;28;20050;-59
2022/03/21 05:47:27;;;;;;;8.85;7.32;;;9.10;90.10;;;;;;5014583;28;20125;-59
2022/03/21 05:49:55;;;;;;;10.43;7.22;;;9.30;90.00;;;;;;4996783;28;20128;-59
2022/03/21 05:52:25;;;;;;;11.70;7.75;;;9.40;89.80;;;;;;5013199;28;20071;-59
2022/03/21 05:54:53;;;;;;;11.27;8.40;;;9.60;89.60;;;;;;5014224;28;20037;-59
2022/03/21 05:57:20;;;;;;;9.98;7.15;;;9.80;89.40;;;;;;5014366;28;20152;-59
2022/03/21 06:02:37;;;;;;;9.73;7.18;;;10.20;88.90;;;;;;5014251;28;20081;-59
2022/03/21 06:05:06;;;;;;;7.47;5.90;;;10.40;88.30;;;;;;4996757;28;20495;-59
2022/03/21 06:07:34;;;;;;;11.02;6.80;;;10.50;87.60;;;;;;5013796;28;20052;-58
2022/03/21 06:10:01;;;;;;;7.63;5.30;;;10.70;87.30;;;;;;5014083;28;20381;-59
2022/03/21 06:12:30;;;;;;;11.02;6.70;;;10.80;86.20;;;;;;5012853;28;20116;-59
2022/03/21 06:14:59;;;;;;;10.52;6.55;;;11.00;86.40;;;;;;5014143;28;20045;-58
2022/03/21 06:17:27;;;;;;;7.07;5.65;;;11.10;86.60;;;;;;4996122;28;20408;-59
2022/03/21 06:19:55;;;;;;;8.43;5.90;;;11.20;86.20;;;;;;5009109;28;20438;-60
2022/03/21 06:22:22;;;;;;;9.45;6.13;;;11.40;85.80;;;;;;4994420;28;20077;-59
2022/03/21 06:24:50;;;;;;;7.75;4.88;;;11.60;86.00;;;;;;4993496;28;20042;-58
2022/03/21 06:27:17;;;;;;;10.32;5.53;;;11.70;85.80;;;;;;4994345;28;20051;-59
2022/03/21 06:29:45;;;;;;;8.32;5.07;;;11.90;85.10;;;;;;5009555;28;20082;-59
2022/03/21 06:32:14;;;;;;;6.57;5.00;;;12.10;84.60;;;;;;4976592;28;20042;-58
2022/03/21 06:34:41;;;;;;;10.65;4.45;;;12.20;84.00;;;;;;4993113;28;20100;-58
2022/03/21 06:37:10;;;;;;;6.97;4.72;;;12.30;83.70;;;;;;4993048;28;20039;-59
2022/03/21 06:39:37;;;;;;;9.25;4.35;;;12.50;83.60;;;;;;4993217;28;20042;-58
2022/03/21 06:42:06;;;;;;;7.72;4.35;;;12.60;83.10;;;;;;4993972;28;20046;-59
2022/03/21 06:44:33;;;;;;;7.55;4.13;;;12.80;82.80;;;;;;4992870;28;20050;-59
2022/03/21 06:47:01;;;;;;;7.03;4.35;;;12.90;81.90;;;;;;4994106;28;20047;-58
2022/03/21 06:49:30;;;;;;;5.25;4.00;;;13.10;81.70;;;;;;4992855;28;20046;-59
2022/03/21 06:51:57;;;;;;;4.97;3.72;;;13.30;80.80;;;;;;5009221;28;20050;-58
2022/03/21 06:54:25;;;;;;;6.15;3.95;;;13.40;80.50;;;;;;4992949;28;20046;-59
2022/03/21 06:56:53;;;;;;;10.65;5.18;;;13.50;80.10;;;;;;5009093;28;20049;-58
2022/03/21 06:59:20;;;;;;;9.70;6.15;;;13.70;79.30;;;;;;4994128;28;20129;-59
2022/03/21 07:01:50;;;;;;;10.98;5.65;;;13.80;78.70;;;;;;5008957;28;20039;-59
2022/03/21 07:04:18;;;;;;;6.63;3.95;;;14.00;78.50;;;;;;5009387;28;20038;-58
2022/03/21 07:06:45;;;;;;;7.78;4.15;;;14.10;78.00;;;;;;4992976;28;20088;-58
2022/03/21 07:09:13;;;;;;;4.57;3.53;;;14.20;76.80;;;;;;5009288;28;20058;-58
2022/03/21 07:11:41;;;;;;;5.68;3.78;;;14.30;75.20;;;;;;4993777;28;20129;-58
2022/03/21 07:14:12;;;;;;;8.65;5.20;;;14.40;74.70;;;;;;4977217;28;20520;-58
2022/03/21 07:16:39;;;;;;;6.65;4.03;;;14.50;74.40;;;;;;4993656;28;20042;-58
2022/03/21 07:19:07;;;;;;;7.07;4.13;;;14.60;74.30;;;;;;4992444;28;20058;-59
2022/03/21 07:21:35;;;;;;;5.85;3.60;;;14.70;73.30;;;;;;5009201;28;20050;-58
2022/03/21 07:24:03;;;;;;;5.78;4.20;;;14.70;71.70;;;;;;4991981;28;20602;-59
2022/03/21 07:26:32;;;;;;;5.50;3.95;;;14.80;70.00;;;;;;4992966;28;20081;-59
2022/03/21 07:29:00;;;;;;;5.07;3.67;;;14.80;69.70;;;;;;4976890;28;20058;-58
2022/03/21 07:31:31;;;;;;;5.00;3.72;;;14.90;69.80;;;;;;5011952;28;20046;-59
2022/03/21 07:33:59;;;;;;;5.55;3.60;;;14.90;68.40;;;;;;4996276;28;20493;-58
2022/03/21 07:36:28;;;;;;;6.68;3.35;;;14.90;67.60;;;;;;5012886;28;20428;-59
2022/03/21 07:38:57;;;;;;;6.30;3.50;;;15.00;67.30;;;;;;4979841;28;20062;-59
2022/03/21 07:41:26;;;;;;;5.78;2.95;;;14.90;62.30;;;;;;5012371;28;20181;-60
2022/03/21 07:43:57;;;;;;;5.88;3.53;;;14.80;61.30;;;;;;4995885;28;20069;-59
2022/03/21 07:49:35;;;;;;;4.65;2.65;;;14.50;59.80;;;;;;4994920;28;20057;-59
2022/03/21 07:52:04;;;;;;;5.78;2.88;;;14.60;59.90;;;;;;4978639;28;20058;-59
2022/03/21 07:54:32;;;;;;;4.78;2.72;;;14.60;60.40;;;;;;4995372;28;20058;-59
2022/03/21 07:57:00;;;;;;;5.30;2.78;;;14.60;60.20;;;;;;4995649;28;20386;-59
2022/03/21 07:59:27;;;;;;;4.18;3.25;;;14.70;58.40;;;;;;4997015;28;20046;-59
2022/03/21 08:01:55;;;;;;;7.32;3.72;;;14.70;59.10;;;;;;4996430;28;20054;-60
2022/03/21 08:04:24;;;;;;;4.47;2.53;;;14.80;60.20;;;;;;5026375;28;20474;-61
2022/03/21 08:06:57;;;;;;;4.25;2.63;;;14.80;58.80;;;;;;5009566;28;20133;-60
2022/03/21 08:09:27;;;;;;;4.95;3.30;;;14.80;58.30;;;;;;5015010;28;20543;-59
2022/03/21 08:11:57;;;;;;;4.95;2.80;;;14.80;57.70;;;;;;5013990;28;20045;-59
2022/03/21 08:14:25;;;;;;;7.32;2.95;;;14.90;60.40;;;;;;4998311;28;20078;-59
2022/03/21 08:16:52;;;;;;;6.20;3.63;;;15.10;59.40;;;;;;4996263;28;20065;-59
2022/03/21 08:19:20;;;;;;;4.65;2.85;;;15.10;59.60;;;;;;5001850;28;20408;-60
2022/03/21 08:21:48;;;;;;;6.95;3.22;;;14.90;58.40;;;;;;5016104;28;20046;-59
2022/03/21 08:24:15;;;;;;;4.63;2.95;;;14.80;58.80;;;;;;5015993;28;20037;-59
2022/03/21 08:26:43;;;;;;;5.55;3.53;;;14.90;59.20;;;;;;5015996;28;20046;-59
2022/03/21 08:29:11;;;;;;;5.03;2.83;;;14.80;59.00;;;;;;4998813;28;20041;-57
2022/03/21 08:31:38;;;;;;;5.53;3.30;;;14.80;59.90;;;;;;4982363;28;20053;-57
2022/03/21 08:34:06;;;;;;;5.45;2.60;;;14.80;60.30;;;;;;4998146;28;20128;-57
2022/03/21 08:36:34;;;;;;;4.40;2.25;;;14.60;60.80;;;;;;5015884;28;20435;-57
2022/03/21 08:39:03;;;;;;;5.53;3.38;;;14.70;61.40;;;;;;5016178;28;20058;-56
2022/03/21 08:41:31;;;;;;;5.68;3.20;;;14.60;61.70;;;;;;4997779;28;20046;-56
2022/03/21 08:43:58;;;;;;;5.13;2.80;;;14.50;62.80;;;;;;5015696;28;20045;-57
2022/03/21 08:46:26;;;;;;;4.80;3.00;;;14.60;63.10;;;;;;4981875;28;20100;-58
2022/03/21 08:51:58;;;;;;;5.10;3.28;;;14.70;63.50;;;;;;4997842;28;20044;-59
2022/03/21 08:54:27;;;;;;;5.30;3.20;;;15.00;62.60;;;;;;4998129;28;20470;-58
2022/03/21 08:56:54;;;;;;;5.15;3.58;;;15.10;61.80;;;;;;4997898;28;20038;-57
2022/03/21 08:59:22;;;;;;;4.50;2.78;;;15.00;59.60;;;;;;5015199;28;20050;-58
2022/03/21 09:01:50;;;;;;;4.32;2.72;;;15.00;59.60;;;;;;5015471;28;20096;-58
2022/03/21 09:04:18;;;;;;;5.18;3.40;;;15.00;59.90;;;;;;4998197;28;20038;-57
2022/03/21 09:06:45;;;;;;;5.18;3.30;;;15.10;60.30;;;;;;5015549;28;20038;-58
2022/03/21 09:09:13;;;;;;;4.63;2.90;;;15.30;60.70;;;;;;4965957;28;20053;-58
2022/03/21 09:11:40;;;;;;;7.18;3.97;;;15.40;60.40;;;;;;4997446;28;20037;-57
2022/03/21 09:14:08;;;;;;;4.97;3.20;;;15.60;59.40;;;;;;4965182;28;20057;-58
2022/03/21 09:16:42;;;;;;;5.57;3.30;;;15.80;59.10;;;;;;4981731;28;20068;-58
2022/03/21 09:19:10;;;;;;;4.60;2.80;;;16.00;59.30;;;;;;5014741;28;20050;-58
2022/03/21 09:21:38;;;;;;;5.70;3.03;;;16.00;59.30;;;;;;4981459;28;20546;-58
2022/03/21 09:24:07;;;;;;;6.35;3.33;;;15.90;59.80;;;;;;5014927;28;20056;-58
2022/03/21 09:26:35;;;;;;;4.68;2.78;;;15.90;59.20;;;;;;4997202;28;20054;-59
2022/03/21 09:29:04;;;;;;;7.50;3.85;;;15.60;58.00;;;;;;4997483;28;20041;-58
2022/03/21 09:31:32;;;;;;;5.40;3.13;;;15.60;57.80;;;;;;4997646;28;20369;-58
2022/03/21 09:34:05;;;;;;;4.93;2.90;;;15.50;58.30;;;;;;4981962;28;20053;-58
2022/03/21 09:36:33;;;;;;;6.95;3.80;;;15.20;56.30;;;;;;4964992;28;20046;-58
2022/03/21 09:39:01;;;;;;;7.45;3.97;;;15.30;57.50;;;;;;4997278;28;20077;-58
2022/03/21 09:41:30;;;;;;;6.72;3.97;;;15.30;57.60;;;;;;5014762;28;20519;-58
2022/03/21 09:44:01;;;;;;;5.50;3.90;;;15.40;57.50;;;;;;5014698;28;20073;-58
2022/03/21 09:46:29;;;;;;;6.47;2.90;;;15.40;57.70;;;;;;4980733;28;20145;-58
2022/03/21 09:48:57;;;;;;;5.50;3.05;;;15.50;58.50;;;;;;4981207;28;20050;-58
2022/03/21 09:51:29;;;;;;;7.20;3.70;;;15.60;58.90;;;;;;4997053;28;20042;-58
2022/03/21 09:53:59;;;;;;;5.57;3.35;;;15.30;58.20;;;;;;4996983;28;20392;-58
2022/03/21 09:56:28;;;;;;;4.35;3.10;;;15.20;57.90;;;;;;4997119;28;20076;-58
2022/03/21 09:58:59;;;;;;;7.25;3.13;;;15.30;58.80;;;;;;4980761;28;20060;-58
2022/03/21 10:01:29;;;;;;;5.15;3.55;;;15.50;58.80;;;;;;4997046;28;20046;-59
2022/03/21 10:04:00;;;;;;;6.57;3.15;;;15.40;58.80;;;;;;4980991;28;20050;-58
2022/03/21 10:06:29;;;;;;;4.95;2.88;;;15.60;59.80;;;;;;4980609;28;20077;-59
2022/03/21 10:09:12;;;;;;;8.10;3.78;;;15.60;59.90;;;;;;4964410;28;20104;-58
2022/03/21 10:11:51;;;;;;;5.55;3.10;;;15.50;59.60;;;;;;4980816;28;20630;-58
2022/03/21 10:14:23;;;;;;;4.65;2.72;;;15.60;60.20;;;;;;4964743;28;20136;-58
2022/03/21 10:16:59;;;;;;;5.38;3.92;;;15.70;58.10;;;;;;4981101;28;20080;-58
2022/03/21 10:19:39;;;;;;;;;;;15.80;58.80;;;;;;4996939;28;20085;-58
2022/03/21 10:22:15;;;;;;;5.70;3.75;;;15.80;58.80;;;;;;5014311;28;19922;-58
2022/03/21 10:24:48;;;;;;;4.88;3.22;;;15.70;58.50;;;;;;5013966;28;20492;-58
2022/03/21 10:27:36;;;;;;;5.63;3.08;;;15.80;58.30;;;;;;4996543;28;20104;-58
2022/03/21 10:30:10;;;;;;;5.70;3.70;;;15.80;59.10;;;;;;4996854;28;20042;-58
2022/03/21 10:32:43;;;;;;;6.95;2.92;;;15.50;58.20;;;;;;5013866;28;20046;-58
2022/03/21 10:35:16;;;;;;;6.00;3.10;;;15.60;59.20;;;;;;4996675;28;20076;-58
2022/03/21 10:37:52;;;;;;;7.32;3.30;;;15.80;59.20;;;;;;4996267;28;20046;-58
2022/03/21 10:40:24;;;;;;;7.47;4.22;;;15.60;62.70;;;;;;4996474;28;20050;-57
2022/03/21 10:42:57;;;;;;;8.15;4.20;;;15.50;63.10;;;;;;5014056;28;20050;-57
2022/03/21 10:45:49;;;;;;;7.40;3.40;;;15.60;61.30;;;;;;5013798;28;20139;-58
2022/03/21 10:48:18;;;;;;;6.75;3.50;;;15.60;59.40;;;;;;4996199;28;20559;-57
2022/03/21 10:50:51;;;;;;;10.48;3.60;;;15.50;59.00;;;;;;4996428;28;20396;-57
2022/03/21 10:53:50;;;;;;;6.78;3.72;;;15.40;59.60;;;;;;4996107;28;20042;-57
2022/03/21 10:56:18;;;;;;;5.05;3.28;;;15.60;59.70;;;;;;4993847;28;20049;-57
2022/03/21 10:58:48;;;;;;;6.85;3.35;;;15.50;59.40;;;;;;4996049;28;20041;-57
2022/03/21 11:01:24;;;;;;;7.38;4.10;;;15.50;58.90;;;;;;4964357;28;20057;-58
2022/03/21 11:03:56;;;;;;;;;;;15.50;59.80;;;;;;5014152;28;20400;-57
2022/03/21 11:06:25;;;;;;;6.28;3.20;;;15.30;59.80;;;;;;4984288;28;20350;-57
2022/03/21 11:08:54;;;;;;;5.40;3.90;;;15.10;59.90;;;;;;5000157;28;20052;-57
2022/03/21 11:11:22;;;;;;;7.28;3.78;;;14.90;60.00;;;;;;4999978;28;20053;-58
2022/03/21 11:13:50;;;;;;;5.55;3.50;;;14.90;61.00;;;;;;4999869;28;20038;-56
2022/03/21 11:16:18;;;;;;;8.20;3.95;;;14.90;60.90;;;;;;5000039;28;20058;-57
2022/03/21 11:18:48;;;;;;;4.85;3.15;;;15.00;61.80;;;;;;5017110;28;20049;-58
2022/03/21 11:21:18;;;;;;;6.75;3.90;;;15.10;61.90;;;;;;4999913;28;20393;-56
2022/03/21 11:23:47;;;;;;;6.40;3.65;;;15.30;62.00;;;;;;4999809;28;20563;-57
2022/03/21 11:26:53;;;;;;;5.00;3.33;;;15.30;61.80;;;;;;4999867;28;20054;-57
2022/03/21 11:29:38;;;;;;;6.32;3.67;;;15.20;61.40;;;;;;5016936;28;20041;-57
2022/03/21 11:32:21;;;;;;;6.53;4.03;;;15.10;62.50;;;;;;4983432;28;20096;-58
2022/03/21 11:34:54;;;;;;;6.97;3.63;;;14.90;59.80;;;;;;4983660;28;20092;-57
2022/03/21 11:37:27;;;;;;;5.28;3.47;;;14.70;59.60;;;;;;5016851;28;20053;-58
2022/03/21 11:40:24;;;;;;;5.38;2.97;;;14.70;62.10;;;;;;5017075;28;20057;-57
2022/03/21 11:42:55;;;;;;;8.63;3.57;;;14.80;62.70;;;;;;4961012;28;20049;-56
2022/03/21 11:45:27;;;;;;;5.57;3.33;;;14.90;62.30;;;;;;5000057;28;20053;-58
2022/03/21 11:48:17;;;;;;;4.75;3.28;;;14.80;61.50;;;;;;4999195;28;20045;-57
2022/03/21 11:50:48;;;;;;;5.47;3.25;;;14.70;60.20;;;;;;5016818;28;20092;-57
2022/03/21 11:53:27;;;;;;;4.95;3.45;;;14.50;60.40;;;;;;4999117;28;20074;-58
2022/03/21 11:55:55;;;;;;;7.35;4.00;;;14.50;60.10;;;;;;4999684;28;20034;-58
2022/03/21 11:58:47;;;;;;;6.32;3.97;;;14.50;59.90;;;;;;4983269;28;20049;-57
2022/03/21 12:01:16;;;;;;;5.88;3.42;;;14.60;60.50;;;;;;4982836;28;20046;-57
2022/03/21 12:03:44;;;;;;;4.82;3.50;;;14.70;60.90;;;;;;4999226;28;20050;-57
2022/03/21 12:06:27;;;;;;;6.32;3.85;;;14.40;59.20;;;;;;4998996;28;20392;-57
2022/03/21 12:08:59;;;;;;;8.57;4.50;;;14.40;59.80;;;;;;5016314;28;20045;-57
2022/03/21 12:11:39;;;;;;;8.05;4.05;;;14.30;60.30;;;;;;4998960;28;20042;-57
2022/03/21 12:14:21;;;;;;;9.45;7.22;;;14.10;60.00;;;;;;5016101;28;20070;-57
2022/03/21 12:17:12;;;;;;;4.95;4.20;;;14.20;60.70;;;;;;4997598;28;20132;-56
2022/03/21 12:19:54;;;;;;;6.30;3.85;;;14.20;61.30;;;;;;4991479;28;20061;-57
2022/03/21 12:22:33;;;;;;;5.63;3.72;;;14.00;59.00;;;;;;4998781;28;20088;-57
2022/03/21 12:25:13;;;;;;;4.80;3.63;;;13.90;59.30;;;;;;4998535;28;20480;-57
2022/03/21 12:27:56;;;;;;;7.05;3.20;;;14.00;59.90;;;;;;4998740;28;20129;-57
2022/03/21 12:30:23;;;;;;;8.50;3.83;;;13.80;59.80;;;;;;4998516;28;20046;-58
2022/03/21 12:33:13;;;;;;;6.82;4.75;;;13.70;58.90;;;;;;4965835;28;20551;-58
2022/03/21 12:35:42;;;;;;;7.03;4.20;;;13.80;59.80;;;;;;4998157;28;20045;-57
2022/03/21 12:38:21;;;;;;;6.63;3.42;;;13.90;60.00;;;;;;4998412;28;20042;-55
2022/03/21 12:43:28;;;;;;;5.63;3.00;;;13.40;58.10;;;;;;4998698;28;20057;-55
2022/03/21 12:46:04;;;;;;;4.70;3.60;;;13.50;58.60;;;;;;4998480;28;20435;-55
2022/03/21 12:48:34;;;;;;;6.18;3.28;;;13.50;58.80;;;;;;5015637;28;20038;-56
2022/03/21 12:51:04;;;;;;;7.28;3.30;;;13.40;58.00;;;;;;4998243;28;20440;-55
2022/03/21 12:53:43;;;;;;;6.03;3.38;;;13.30;58.10;;;;;;5015212;28;20034;-57
2022/03/21 12:56:13;;;;;;;7.82;3.45;;;13.30;57.00;;;;;;4997961;28;20042;-57
2022/03/21 12:58:45;;;;;;;7.05;4.18;;;13.30;58.70;;;;;;4997847;28;20099;-57
2022/03/21 13:01:15;;;;;;;8.27;3.78;;;13.30;57.40;;;;;;5015613;28;20422;-56
2022/03/21 13:03:43;;;;;;;6.95;3.70;;;13.30;56.50;;;;;;4965965;28;20056;-57
2022/03/21 13:11:36;;;;;;;5.88;3.67;;;13.30;56.20;;;;;;4998022;28;19921;-55
2022/03/21 13:14:14;;;;;;;9.65;3.75;;;13.40;57.20;;;;;;4981498;28;20104;-57
2022/03/21 13:17:05;;;;;;;6.43;3.70;;;13.30;56.00;;;;;;5015301;28;20137;-54
2022/03/21 13:19:42;;;;;;;5.65;3.38;;;13.30;56.70;;;;;;4962192;28;20134;-56
2022/03/21 13:22:10;;;;;;;8.68;4.28;;;13.30;57.30;;;;;;4994301;28;20046;-56
2022/03/21 13:24:47;;;;;;;6.05;3.20;;;13.20;56.90;;;;;;4994088;28;20428;-56
2022/03/21 13:27:17;;;;;;;8.43;4.80;;;13.20;57.50;;;;;;4993623;28;20539;-54
2022/03/21 13:29:53;;;;;;;7.03;4.63;;;13.20;57.30;;;;;;4995159;28;20046;-55
2022/03/21 13:32:21;;;;;;;5.88;4.15;;;13.20;57.90;;;;;;4995376;28;20523;-53
2022/03/21 13:34:49;;;;;;;6.05;4.30;;;13.20;58.10;;;;;;4993743;28;20054;-53